createdAt,value
2018-11-05T00:00:45.130Z,101415.95
2018-11-05T00:03:14.295Z,101408.80
2018-11-05T00:05:43.982Z,101410.80
2018-11-05T00:08:12.919Z,101402.65
2018-11-05T00:10:42.387Z,101404.48
2018-11-05T00:13:11.300Z,101397.81
2018-11-05T00:15:40.139Z,101391.28
2018-11-05T00:18:09.086Z,101381.78
2018-11-05T00:20:37.959Z,101375.94
2018-11-05T00:23:06.900Z,101377.58
2018-11-05T00:25:35.770Z,101382.58
2018-11-05T00:28:05.176Z,101373.56
2018-11-05T00:30:34.102Z,101377.06
2018-11-05T00:33:03.016Z,101378.73
2018-11-05T00:35:32.424Z,101377.89
2018-11-05T00:38:01.223Z,101377.42
2018-11-05T00:40:30.826Z,101375.59
2018-11-05T00:43:00.080Z,101372.77
2018-11-05T00:45:29.460Z,101367.10
2018-11-05T00:47:59.278Z,101367.94
2018-11-05T00:50:29.081Z,101369.77
2018-11-05T00:52:58.483Z,101372.75
2018-11-05T00:55:27.417Z,101373.79
2018-11-05T00:57:56.428Z,101365.97
2018-11-05T01:00:26.039Z,101367.12
2018-11-05T01:02:55.238Z,101367.12
2018-11-05T01:05:24.722Z,101369.27
2018-11-05T01:07:56.231Z,101368.09
2018-11-05T01:10:25.868Z,101354.09
2018-11-05T01:12:55.017Z,101361.41
2018-11-05T01:15:56.008Z,101361.91
2018-11-05T01:18:25.310Z,101358.94
2018-11-05T01:20:55.647Z,101358.09
2018-11-05T01:23:25.113Z,101350.94
2018-11-05T01:25:54.510Z,101338.11
2018-11-05T01:28:24.618Z,101341.77
2018-11-05T01:30:54.504Z,101344.09
2018-11-05T01:33:24.638Z,101340.92
2018-11-05T01:35:54.653Z,101335.28
2018-11-05T01:38:25.631Z,101335.28
2018-11-05T01:40:54.817Z,101328.13
2018-11-05T01:43:24.681Z,101323.29
2018-11-05T01:45:54.527Z,101321.62
2018-11-05T01:48:24.611Z,101318.77
2018-11-05T01:50:55.449Z,101321.44
2018-11-05T01:53:25.568Z,101311.95
2018-11-05T01:55:54.571Z,101310.44
2018-11-05T01:58:24.158Z,101311.12
2018-11-05T02:00:54.242Z,101306.96
2018-11-05T02:03:24.102Z,101310.95
2018-11-05T02:05:54.147Z,101298.80
2018-11-05T02:08:23.621Z,101300.97
2018-11-05T02:10:53.657Z,101297.16
2018-11-05T02:13:23.780Z,101295.84
2018-11-05T02:15:53.648Z,101294.31
2018-11-05T02:18:23.551Z,101296.33
2018-11-05T02:20:53.687Z,101294.66
2018-11-05T02:23:23.447Z,101296.48
2018-11-05T02:25:53.292Z,101296.48
2018-11-05T02:28:23.444Z,101289.67
2018-11-05T02:30:53.397Z,101292.48
2018-11-05T02:33:23.774Z,101292.14
2018-11-05T02:35:53.717Z,101295.98
2018-11-05T02:38:23.178Z,101301.31
2018-11-05T02:40:52.478Z,101292.98
2018-11-05T02:43:22.494Z,101296.32
2018-11-05T02:45:51.688Z,101295.98
2018-11-05T02:48:22.318Z,101294.31
2018-11-05T02:50:52.463Z,101292.30
2018-11-05T02:56:54.579Z,101289.66
2018-11-05T02:59:24.079Z,101291.64
2018-11-05T03:01:54.809Z,101284.63
2018-11-05T03:04:24.949Z,101287.98
2018-11-05T03:06:54.448Z,101285.81
2018-11-05T03:09:24.511Z,101284.82
2018-11-05T03:11:55.019Z,101282.98
2018-11-05T03:14:24.953Z,101282.31
2018-11-05T03:16:54.256Z,101279.81
2018-11-05T03:19:24.841Z,101277.64
2018-11-05T03:21:55.721Z,101275.48
2018-11-05T03:24:24.876Z,101269.97
2018-11-05T03:26:55.042Z,101271.62
2018-11-05T03:29:25.040Z,101265.80
2018-11-05T03:31:54.656Z,101267.63
2018-11-05T03:34:24.619Z,101262.45
2018-11-05T03:36:54.400Z,101268.28
2018-11-05T03:39:24.637Z,101261.13
2018-11-05T03:41:54.648Z,101265.62
2018-11-05T03:44:24.260Z,101259.98
2018-11-05T03:46:53.678Z,101264.28
2018-11-05T03:49:23.672Z,101260.78
2018-11-05T03:51:53.638Z,101256.63
2018-11-05T03:54:23.024Z,101253.13
2018-11-05T03:56:52.308Z,101254.46
2018-11-05T03:59:21.920Z,101253.80
2018-11-05T04:01:51.788Z,101254.14
2018-11-05T04:04:21.600Z,101251.99
2018-11-05T04:06:51.009Z,101252.98
2018-11-05T04:09:19.971Z,101255.98
2018-11-05T04:11:49.625Z,101250.98
2018-11-05T04:14:19.029Z,101257.00
2018-11-05T04:16:47.993Z,101246.48
2018-11-05T04:19:16.961Z,101240.84
2018-11-05T04:21:46.423Z,101236.84
2018-11-05T04:24:16.232Z,101237.52
2018-11-05T04:26:46.394Z,101240.34
2018-11-05T04:29:15.354Z,101240.18
2018-11-05T04:31:45.215Z,101244.67
2018-11-05T04:34:14.477Z,101240.34
2018-11-05T04:36:45.189Z,101233.67
2018-11-05T04:39:15.843Z,101237.35
2018-11-05T04:41:45.368Z,101226.20
2018-11-05T04:44:14.244Z,101225.86
2018-11-05T04:46:43.225Z,101214.86
2018-11-05T04:49:13.020Z,101218.69
2018-11-05T04:51:43.287Z,101207.85
2018-11-05T04:54:12.139Z,101211.37
2018-11-05T04:56:41.106Z,101209.04
2018-11-05T04:59:10.150Z,101215.34
2018-11-05T05:01:43.986Z,101214.19
2018-11-05T05:04:14.410Z,101217.53
2018-11-05T05:06:43.402Z,101215.36
2018-11-05T05:09:13.291Z,101212.20
2018-11-05T05:11:42.772Z,101212.20
2018-11-05T05:14:11.871Z,101206.03
2018-11-05T05:16:40.829Z,101204.38
2018-11-05T05:19:09.912Z,101203.05
2018-11-05T05:21:38.750Z,101198.22
2018-11-05T05:24:07.797Z,101195.40
2018-11-05T05:26:36.718Z,101191.90
2018-11-05T05:29:06.654Z,101194.39
2018-11-05T05:31:36.266Z,101195.72
2018-11-05T05:34:05.622Z,101195.22
2018-11-05T05:36:34.531Z,101197.73
2018-11-05T05:39:03.655Z,101187.73
2018-11-05T05:41:32.591Z,101189.72
2018-11-05T05:44:02.084Z,101196.88
2018-11-05T05:46:31.007Z,101194.39
2018-11-05T05:49:00.731Z,101198.71
2018-11-05T05:51:30.184Z,101197.39
2018-11-05T05:53:59.262Z,101195.90
2018-11-05T05:56:28.249Z,101197.88
2018-11-05T05:58:57.221Z,101195.21
2018-11-05T06:01:26.672Z,101197.72
2018-11-05T06:03:56.215Z,101195.39
2018-11-05T06:06:25.417Z,101203.05
2018-11-05T06:08:54.550Z,101197.88
2018-11-05T06:11:24.665Z,101198.38
2018-11-05T06:16:38.166Z,101190.05
2018-11-05T06:19:07.569Z,101199.71
2018-11-05T06:21:36.688Z,101197.88
2018-11-05T06:24:05.773Z,101196.70
2018-11-05T06:26:35.396Z,101191.05
2018-11-05T06:29:04.311Z,101195.71
2018-11-05T06:31:33.662Z,101200.05
2018-11-05T06:34:02.631Z,101197.22
2018-11-05T06:36:32.103Z,101202.88
2018-11-05T06:39:00.957Z,101203.38
2018-11-05T06:41:30.215Z,101195.56
2018-11-05T06:43:59.888Z,101202.39
2018-11-05T06:46:28.881Z,101197.37
2018-11-05T06:48:58.676Z,101197.06
2018-11-05T06:51:27.981Z,101204.87
2018-11-05T06:53:56.948Z,101203.37
2018-11-05T06:56:26.062Z,101207.70
2018-11-05T06:58:55.216Z,101207.54
2018-11-05T07:04:57.553Z,101207.39
2018-11-05T07:07:26.436Z,101204.59
2018-11-05T07:09:55.809Z,101205.06
2018-11-05T07:12:25.510Z,101203.39
2018-11-05T07:14:54.469Z,101206.56
2018-11-05T07:17:24.291Z,101201.91
2018-11-05T07:19:54.282Z,101204.41
2018-11-05T07:22:28.420Z,101211.91
2018-11-05T07:24:57.902Z,101206.73
2018-11-05T07:27:26.875Z,101205.57
2018-11-05T07:29:55.868Z,101205.57
2018-11-05T07:32:25.631Z,101201.06
2018-11-05T07:34:54.480Z,101205.59
2018-11-05T07:37:28.162Z,101202.59
2018-11-05T07:39:56.953Z,101194.41
2018-11-05T07:42:26.785Z,101194.58
2018-11-05T07:44:56.398Z,101197.71
2018-11-05T07:47:25.495Z,101195.20
2018-11-05T07:49:54.953Z,101193.42
2018-11-05T07:52:27.158Z,101198.75
2018-11-05T07:54:55.999Z,101195.55
2018-11-05T07:57:25.073Z,101188.55
2018-11-05T07:59:55.015Z,101193.88
2018-11-05T08:02:24.368Z,101200.88
2018-11-05T08:04:54.430Z,101201.54
2018-11-05T08:07:24.119Z,101185.55
2018-11-05T08:09:53.499Z,101194.88
2018-11-05T08:12:23.541Z,101191.38
2018-11-05T08:14:53.580Z,101191.70
2018-11-05T08:20:05.067Z,101190.41
2018-11-05T08:22:39.293Z,101191.09
2018-11-05T08:25:08.554Z,101195.73
2018-11-05T08:27:37.779Z,101188.40
2018-11-05T08:30:09.240Z,101190.41
2018-11-05T08:32:38.916Z,101193.38
2018-11-05T08:35:08.689Z,101192.55
2018-11-05T08:37:43.388Z,101201.05
2018-11-05T08:40:14.655Z,101205.56
2018-11-05T08:42:44.622Z,101210.56
2018-11-05T08:45:14.630Z,101207.36
2018-11-05T08:47:43.652Z,101204.86
2018-11-05T08:50:15.309Z,101204.36
2018-11-05T08:52:45.845Z,101204.53
2018-11-05T08:55:16.630Z,101199.20
2018-11-05T08:57:45.729Z,101193.83
2018-11-05T09:00:21.883Z,101194.33
2018-11-05T09:02:51.547Z,101192.66
2018-11-05T09:05:21.488Z,101197.16
2018-11-05T09:07:51.573Z,101182.66
2018-11-05T09:10:22.579Z,101180.31
2018-11-05T09:12:53.151Z,101177.81
2018-11-05T09:15:23.014Z,101178.48
2018-11-05T09:17:53.723Z,101168.31
2018-11-05T09:20:23.470Z,101166.30
2018-11-05T09:22:52.707Z,101162.59
2018-11-05T09:25:21.863Z,101164.77
2018-11-05T09:27:52.527Z,101171.27
2018-11-05T09:30:22.931Z,101167.22
2018-11-05T09:32:52.720Z,101171.22
2018-11-05T09:35:22.468Z,101170.22
2018-11-05T09:37:51.480Z,101163.70
2018-11-05T09:40:22.578Z,101161.54
2018-11-05T09:42:52.550Z,101156.86
2018-11-05T09:45:25.610Z,101166.20
2018-11-05T09:47:55.295Z,101164.54
2018-11-05T09:50:24.861Z,101168.03
2018-11-05T09:52:54.769Z,101169.17
2018-11-05T09:55:24.014Z,101167.66
2018-11-05T09:57:53.459Z,101162.14
2018-11-05T10:00:25.897Z,101155.80
2018-11-05T10:02:57.067Z,101154.95
2018-11-05T10:05:27.199Z,101153.75
2018-11-05T10:07:56.053Z,101157.08
2018-11-05T10:10:25.802Z,101165.23
2018-11-05T10:12:54.848Z,101164.41
2018-11-05T10:15:25.203Z,101168.57
2018-11-05T10:17:54.987Z,101167.08
2018-11-05T10:20:25.125Z,101161.06
2018-11-05T10:22:54.951Z,101171.24
2018-11-05T10:25:24.138Z,101170.03
2018-11-05T10:27:53.957Z,101172.03
2018-11-05T10:30:24.184Z,101164.00
2018-11-05T10:32:54.081Z,101163.66
2018-11-05T10:35:27.813Z,101160.61
2018-11-05T10:37:56.692Z,101152.25
2018-11-05T10:40:25.746Z,101153.91
2018-11-05T10:42:55.342Z,101155.58
2018-11-05T10:45:24.886Z,101148.55
2018-11-05T10:47:55.366Z,101149.39
2018-11-05T10:50:25.561Z,101148.70
2018-11-05T10:52:54.702Z,101146.48
2018-11-05T10:55:23.959Z,101141.30
2018-11-05T10:57:55.238Z,101137.77
2018-11-05T11:00:30.632Z,101137.93
2018-11-05T11:03:04.490Z,101134.70
2018-11-05T11:06:05.795Z,101129.00
2018-11-05T11:08:34.612Z,101133.16
2018-11-05T11:11:04.138Z,101120.28
2018-11-05T11:13:33.794Z,101132.13
2018-11-05T11:16:02.646Z,101128.22
2018-11-05T11:18:31.550Z,101125.52
2018-11-05T11:21:00.558Z,101119.16
2018-11-05T11:23:29.390Z,101116.13
2018-11-05T11:25:58.482Z,101118.24
2018-11-05T11:28:27.386Z,101112.72
2018-11-05T11:30:56.286Z,101107.13
2018-11-05T11:33:26.673Z,101108.08
2018-11-05T11:35:56.185Z,101106.17
2018-11-05T11:38:25.753Z,101108.67
2018-11-05T11:40:55.289Z,101104.30
2018-11-05T11:43:25.816Z,101106.44
2018-11-05T11:45:55.542Z,101100.66
2018-11-05T11:48:26.055Z,101093.56
2018-11-05T11:50:57.559Z,101084.78
2018-11-05T11:53:26.715Z,101085.53
2018-11-05T11:55:55.801Z,101079.41
2018-11-05T11:58:25.590Z,101085.56
2018-11-05T12:00:56.124Z,101089.64
2018-11-05T12:03:26.543Z,101085.22
2018-11-05T12:05:55.827Z,101087.81
2018-11-05T12:08:25.424Z,101087.91
2018-11-05T12:10:55.863Z,101077.98
2018-11-05T12:13:27.008Z,101076.75
2018-11-05T12:15:56.225Z,101078.73
2018-11-05T12:18:25.858Z,101077.53
2018-11-05T12:20:55.320Z,101074.80
2018-11-05T12:23:24.951Z,101072.31
2018-11-05T12:25:54.939Z,101076.00
2018-11-05T12:28:25.116Z,101072.69
2018-11-05T12:31:03.716Z,101064.45
2018-11-05T12:33:33.390Z,101068.66
2018-11-05T12:36:02.354Z,101067.70
2018-11-05T12:38:31.322Z,101066.86
2018-11-05T12:41:01.077Z,101060.17
2018-11-05T12:43:30.662Z,101054.48
2018-11-05T12:46:04.648Z,101052.03
2018-11-05T12:48:34.109Z,101060.25
2018-11-05T12:51:03.716Z,101055.08
2018-11-05T12:53:32.613Z,101058.27
2018-11-05T12:56:01.570Z,101051.80
2018-11-05T12:58:30.655Z,101046.13
2018-11-05T13:01:00.428Z,101037.89
2018-11-05T13:03:30.006Z,101045.05
2018-11-05T13:05:59.133Z,101039.05
2018-11-05T13:08:28.528Z,101037.52
2018-11-05T13:10:58.420Z,101032.22
2018-11-05T13:13:27.405Z,101033.55
2018-11-05T13:15:56.378Z,101033.23
2018-11-05T13:18:25.557Z,101033.23
2018-11-05T13:20:54.856Z,101035.08
2018-11-05T13:23:32.359Z,101034.57
2018-11-05T13:26:01.564Z,101031.52
2018-11-05T13:28:30.603Z,101029.03
2018-11-05T13:30:59.707Z,101029.54
2018-11-05T13:33:29.586Z,101024.69
2018-11-05T13:35:58.652Z,101020.54
2018-11-05T13:38:27.698Z,101018.77
2018-11-05T13:40:56.767Z,101015.77
2018-11-05T13:43:26.530Z,101019.28
2018-11-05T13:45:56.177Z,101014.43
2018-11-05T13:48:26.673Z,101015.95
2018-11-05T13:50:56.451Z,101020.30
2018-11-05T13:53:25.855Z,101020.44
2018-11-05T13:55:56.027Z,101021.77
2018-11-05T13:58:26.216Z,101026.48
2018-11-05T14:00:56.617Z,101016.78
2018-11-05T14:03:26.348Z,101022.65
2018-11-05T14:05:57.353Z,101024.81
2018-11-05T14:08:26.301Z,101017.80
2018-11-05T14:10:56.199Z,101014.30
2018-11-05T14:13:26.114Z,101015.63
2018-11-05T14:15:55.707Z,101012.95
2018-11-05T14:18:25.561Z,101013.65
2018-11-05T14:20:55.289Z,101010.83
2018-11-05T14:23:24.890Z,101020.52
2018-11-05T14:25:55.075Z,101018.86
2018-11-05T14:28:25.142Z,101018.36
2018-11-05T14:30:55.115Z,101015.63
2018-11-05T14:33:25.553Z,101021.77
2018-11-05T14:35:54.952Z,101015.69
2018-11-05T14:38:25.041Z,101019.02
2018-11-05T14:40:54.517Z,101021.05
2018-11-05T14:43:24.960Z,101018.88
2018-11-05T14:45:54.441Z,101022.65
2018-11-05T14:48:25.172Z,101025.64
2018-11-05T14:50:55.087Z,101024.86
2018-11-05T14:53:24.536Z,101030.59
2018-11-05T14:55:53.975Z,101026.97
2018-11-05T14:58:24.099Z,101019.48
2018-11-05T15:00:54.694Z,101018.20
2018-11-05T15:03:24.992Z,101021.06
2018-11-05T15:05:54.967Z,101019.28
2018-11-05T15:08:24.017Z,101015.13
2018-11-05T15:10:53.687Z,101011.62
2018-11-05T15:13:24.400Z,101015.17
2018-11-05T15:15:54.289Z,101012.68
2018-11-05T15:18:25.453Z,101008.34
2018-11-05T15:20:55.067Z,101005.02
2018-11-05T15:23:24.873Z,101002.42
2018-11-05T15:25:54.526Z,100999.28
2018-11-05T15:28:23.940Z,101010.80
2018-11-05T15:30:53.266Z,101006.61
2018-11-05T15:33:23.045Z,100999.59
2018-11-05T15:35:52.094Z,101000.94
2018-11-05T15:38:21.150Z,101008.97
2018-11-05T15:40:50.066Z,101005.31
2018-11-05T15:43:19.816Z,100996.78
2018-11-05T15:45:49.012Z,100998.12
2018-11-05T15:48:18.692Z,100997.47
2018-11-05T15:50:48.569Z,100996.28
2018-11-05T15:53:17.868Z,100990.23
2018-11-05T15:55:46.690Z,100992.22
2018-11-05T15:58:15.672Z,100996.37
2018-11-05T16:00:45.211Z,100992.66
2018-11-05T16:03:15.139Z,100996.99
2018-11-05T16:05:44.076Z,100996.67
2018-11-05T16:08:12.940Z,100992.04
2018-11-05T16:10:42.591Z,100994.06
2018-11-05T16:13:11.450Z,100989.22
2018-11-05T16:16:43.476Z,100989.59
2018-11-05T16:19:12.975Z,100996.28
2018-11-05T16:21:41.826Z,100994.80
2018-11-05T16:24:10.594Z,100994.98
2018-11-05T16:26:40.056Z,100988.62
2018-11-05T16:29:08.883Z,100975.09
2018-11-05T16:31:38.339Z,100974.81
2018-11-05T16:34:07.232Z,100973.14
2018-11-05T16:36:36.854Z,100973.66
2018-11-05T16:39:09.350Z,100975.31
2018-11-05T16:41:38.653Z,100971.48
2018-11-05T16:44:07.754Z,100974.48
2018-11-05T16:46:36.643Z,100973.66
2018-11-05T16:49:06.281Z,100968.30
2018-11-05T16:51:36.347Z,100972.50
2018-11-05T16:54:11.279Z,100959.17
2018-11-05T16:56:40.222Z,100962.02
2018-11-05T16:59:09.869Z,100961.05
2018-11-05T17:01:39.578Z,100954.77
2018-11-05T17:04:09.300Z,100954.11
2018-11-05T17:06:38.266Z,100952.63
2018-11-05T17:09:09.824Z,100966.00
2018-11-05T17:11:39.349Z,100960.30
2018-11-05T17:14:08.622Z,100958.13
2018-11-05T17:16:38.635Z,100949.97
2018-11-05T17:19:08.200Z,100952.96
2018-11-05T17:21:37.017Z,100948.13
2018-11-05T17:24:06.229Z,100945.13
2018-11-05T17:26:35.235Z,100950.80
2018-11-05T17:29:04.107Z,100949.97
2018-11-05T17:31:34.010Z,100952.82
2018-11-05T17:34:03.289Z,100946.35
2018-11-05T17:36:32.117Z,100938.00
2018-11-05T17:39:01.205Z,100932.44
2018-11-05T17:41:30.016Z,100935.66
2018-11-05T17:43:59.106Z,100938.84
2018-11-05T17:46:27.957Z,100943.35
2018-11-05T17:48:58.220Z,100939.02
2018-11-05T17:51:27.910Z,100937.17
2018-11-05T17:53:57.331Z,100936.99
2018-11-05T17:56:27.184Z,100929.08
2018-11-05T17:58:56.184Z,100921.38
2018-11-05T18:01:26.585Z,100921.89
2018-11-05T18:03:57.212Z,100929.91
2018-11-05T18:06:26.094Z,100931.11
2018-11-05T18:08:55.423Z,100936.84
2018-11-05T18:11:25.315Z,100935.88
2018-11-05T18:13:56.066Z,100936.89
2018-11-05T18:16:25.875Z,100942.73
2018-11-05T18:18:55.988Z,100944.08
2018-11-05T18:21:26.915Z,100934.54
2018-11-05T18:23:56.705Z,100938.19
2018-11-05T18:26:26.014Z,100945.30
2018-11-05T18:28:59.664Z,100943.28
2018-11-05T18:31:29.650Z,100943.09
2018-11-05T18:33:58.494Z,100946.45
2018-11-05T18:36:27.326Z,100942.26
2018-11-05T18:38:56.921Z,100937.57
2018-11-05T18:41:25.862Z,100935.58
2018-11-05T18:43:59.321Z,100924.05
2018-11-05T18:46:28.124Z,100929.16
2018-11-05T18:48:57.486Z,100932.01
2018-11-05T18:51:28.184Z,100927.17
2018-11-05T18:53:57.362Z,100920.48
2018-11-05T18:56:26.892Z,100918.13
2018-11-05T18:58:56.103Z,100922.51
2018-11-05T19:01:27.493Z,100924.67
2018-11-05T19:03:56.825Z,100930.53
2018-11-05T19:06:26.547Z,100929.19
2018-11-05T19:08:57.131Z,100929.66
2018-11-05T19:11:27.887Z,100932.98
2018-11-05T19:13:57.746Z,100939.77
2018-11-05T19:16:27.629Z,100939.59
2018-11-05T19:18:57.357Z,100944.61
2018-11-05T19:21:26.925Z,100947.42
2018-11-05T19:23:56.133Z,100946.59
2018-11-05T19:26:25.992Z,100945.58
2018-11-05T19:28:56.299Z,100942.41
2018-11-05T19:31:26.292Z,100939.59
2018-11-05T19:33:55.839Z,100934.42
2018-11-05T19:36:25.863Z,100935.41
2018-11-05T19:38:55.049Z,100930.23
2018-11-05T19:41:25.040Z,100938.58
2018-11-05T19:43:56.823Z,100937.20
2018-11-05T19:46:25.836Z,100939.87
2018-11-05T19:48:57.627Z,100933.88
2018-11-05T19:51:27.215Z,100935.58
2018-11-05T19:53:56.903Z,100933.56
2018-11-05T19:56:27.846Z,100930.23
2018-11-05T19:58:56.670Z,100941.11
2018-11-05T20:01:30.351Z,100938.51
2018-11-05T20:03:59.989Z,100935.84
2018-11-05T20:06:28.806Z,100931.03
2018-11-05T20:08:57.616Z,100929.73
2018-11-05T20:11:27.250Z,100932.08
2018-11-05T20:13:56.979Z,100928.22
2018-11-05T20:16:28.735Z,100925.80
2018-11-05T20:18:58.216Z,100921.78
2018-11-05T20:21:27.515Z,100924.57
2018-11-05T20:23:56.313Z,100923.88
2018-11-05T20:26:25.711Z,100924.86
2018-11-05T20:28:55.358Z,100921.35
2018-11-05T20:31:28.656Z,100921.86
2018-11-05T20:33:57.558Z,100928.36
2018-11-05T20:36:27.240Z,100930.48
2018-11-05T20:38:56.114Z,100925.76
2018-11-05T20:41:25.542Z,100927.92
2018-11-05T20:43:55.056Z,100922.91
2018-11-05T20:46:25.146Z,100934.75
2018-11-05T20:48:55.190Z,100929.39
2018-11-05T20:51:28.168Z,100929.35
2018-11-05T20:53:57.162Z,100927.25
2018-11-05T20:56:26.195Z,100923.06
2018-11-05T20:58:55.880Z,100927.39
2018-11-05T21:01:26.200Z,100924.72
2018-11-05T21:03:56.494Z,100921.40
2018-11-05T21:06:25.669Z,100921.40
2018-11-05T21:08:55.494Z,100919.55
2018-11-05T21:11:26.303Z,100917.84
2018-11-05T21:13:56.640Z,100912.64
2018-11-05T21:16:26.747Z,100910.61
2018-11-05T21:18:56.169Z,100903.92
2018-11-05T21:21:25.881Z,100903.09
2018-11-05T21:23:55.473Z,100901.30
2018-11-05T21:26:26.593Z,100898.44
2018-11-05T21:28:55.759Z,100903.14
2018-11-05T21:31:26.548Z,100904.34
2018-11-05T21:36:25.618Z,100892.44
2018-11-05T21:38:54.842Z,100896.41
2018-11-05T21:41:26.279Z,100894.10
2018-11-05T21:43:56.661Z,100883.06
2018-11-05T21:46:25.585Z,100895.16
2018-11-05T21:48:55.876Z,100894.33
2018-11-05T21:51:26.265Z,100889.16
2018-11-05T21:53:55.659Z,100880.64
2018-11-05T21:56:24.966Z,100883.06
2018-11-05T21:58:54.187Z,100876.42
2018-11-05T22:01:25.865Z,100875.92
2018-11-05T22:03:56.443Z,100886.48
2018-11-05T22:06:26.055Z,100877.02
2018-11-05T22:08:55.223Z,100873.33
2018-11-05T22:11:26.127Z,100876.19
2018-11-05T22:13:56.507Z,100870.70
2018-11-05T22:16:26.198Z,100868.48
2018-11-05T22:18:56.279Z,100868.67
2018-11-05T22:21:25.869Z,100875.17
2018-11-05T22:23:54.964Z,100873.11
2018-11-05T22:26:24.835Z,100876.11
2018-11-05T22:28:54.455Z,100882.75
2018-11-05T22:31:25.677Z,100874.25
2018-11-05T22:33:55.382Z,100869.73
2018-11-05T22:36:25.251Z,100866.55
2018-11-05T22:38:55.458Z,100859.05
2018-11-05T22:41:24.848Z,100855.03
2018-11-05T22:43:54.518Z,100857.70
2018-11-05T22:46:25.352Z,100862.88
2018-11-05T22:48:55.656Z,100872.37
2018-11-05T22:51:25.337Z,100871.97
2018-11-05T22:53:55.191Z,100870.26
2018-11-05T22:56:25.184Z,100873.53
2018-11-05T22:58:54.642Z,100869.98
2018-11-05T23:01:30.320Z,100870.78
2018-11-05T23:04:03.381Z,100871.10
2018-11-05T23:06:33.322Z,100867.04
2018-11-05T23:09:02.316Z,100868.70
2018-11-05T23:11:31.923Z,100859.16
2018-11-05T23:14:01.495Z,100859.47
2018-11-05T23:16:31.241Z,100861.13
2018-11-05T23:19:00.752Z,100866.98
2018-11-05T23:21:29.689Z,100859.98
2018-11-05T23:23:59.258Z,100860.30
2018-11-05T23:26:28.344Z,100853.48
2018-11-05T23:28:58.587Z,100849.59
2018-11-05T23:31:28.605Z,100837.75
2018-11-05T23:33:57.831Z,100838.77
2018-11-05T23:36:26.855Z,100837.75
2018-11-05T23:38:57.807Z,100834.94
2018-11-05T23:41:26.761Z,100827.23
2018-11-05T23:43:56.495Z,100828.38
2018-11-05T23:46:25.876Z,100831.25
2018-11-05T23:48:56.454Z,100826.41
2018-11-05T23:51:26.452Z,100830.41
2018-11-05T23:54:05.700Z,100830.23
2018-11-05T23:56:34.755Z,100823.03
2018-11-05T23:59:07.650Z,100825.89
